sensor_id;sensor_type;location;lat;lon;timestamp;pressure;altitude;pressure_sealevel;temperature;humidity
34243;BME280;20504;43.214;27.920;2022-11-20T00:00:51;97681.06;;;20.72;100.00
34243;BME280;20504;43.214;27.920;2022-11-20T00:03:26;97626.72;;;20.51;100.00
34243;BME280;20504;43.214;27.920;2022-11-20T00:06:03;97672.84;;;20.55;100.00
34243;BME280;20504;43.214;27.920;2022-11-20T00:08:32;97696.06;;;20.68;100.00
34243;BME280;20504;43.214;27.920;2022-11-20T00:11:19;97675.88;;;20.59;100.00
34243;BME280;20504;43.214;27.920;2022-11-20T00:13:48;97699.72;;;20.43;100.00
34243;BME280;20504;43.214;27.920;2022-11-20T00:16:21;97687.41;;;20.36;100.00
34243;BME280;20504;43.214;27.920;2022-11-20T00:19:02;97649.69;;;20.24;100.00
34243;BME280;20504;43.214;27.920;2022-11-20T00:21:49;97727.53;;;20.67;100.00
34243;BME280;20504;43.214;27.920;2022-11-20T00:24:22;97658.69;;;20.18;100.00
34243;BME280;20504;43.214;27.920;2022-11-20T00:26:51;97721.84;;;20.15;100.00
34243;BME280;20504;43.214;27.920;2022-11-20T00:29:21;97674.34;;;20.09;100.00
34243;BME280;20504;43.214;27.920;2022-11-20T00:34:35;97621.41;;;19.91;100.00
34243;BME280;20504;43.214;27.920;2022-11-20T00:37:06;97621.66;;;20.02;100.00
34243;BME280;20504;43.214;27.920;2022-11-20T00:43:01;97590.22;;;20.02;100.00
34243;BME280;20504;43.214;27.920;2022-11-20T00:46:04;97660.00;;;20.39;100.00
34243;BME280;20504;43.214;27.920;2022-11-20T00:48:35;97582.13;;;19.90;100.00
34243;BME280;20504;43.214;27.920;2022-11-20T00:51:14;97613.44;;;19.55;100.00
34243;BME280;20504;43.214;27.920;2022-11-20T00:54:28;97609.78;;;20.09;100.00
34243;BME280;20504;43.214;27.920;2022-11-20T00:56:55;97585.34;;;20.22;100.00
34243;BME280;20504;43.214;27.920;2022-11-20T01:02:26;97499.22;;;19.99;100.00
34243;BME280;20504;43.214;27.920;2022-11-20T01:05:33;97506.03;;;20.13;100.00
34243;BME280;20504;43.214;27.920;2022-11-20T01:11:47;97476.91;;;20.10;100.00
34243;BME280;20504;43.214;27.920;2022-11-20T01:15:12;97468.72;;;20.40;100.00
34243;BME280;20504;43.214;27.920;2022-11-20T01:18:25;97428.38;;;20.52;100.00
34243;BME280;20504;43.214;27.920;2022-11-20T01:20:53;97361.25;;;20.10;100.00
34243;BME280;20504;43.214;27.920;2022-11-20T01:23:33;97327.97;;;20.51;100.00
34243;BME280;20504;43.214;27.920;2022-11-20T01:26:16;97342.03;;;20.99;100.00
34243;BME280;20504;43.214;27.920;2022-11-20T01:29:26;97315.41;;;20.85;100.00
34243;BME280;20504;43.214;27.920;2022-11-20T01:32:33;97306.97;;;20.65;100.00
34243;BME280;20504;43.214;27.920;2022-11-20T01:36:02;97326.66;;;20.82;100.00
34243;BME280;20504;43.214;27.920;2022-11-20T01:46:18;97382.13;;;21.40;100.00
34243;BME280;20504;43.214;27.920;2022-11-20T01:49:16;97378.78;;;21.33;100.00
34243;BME280;20504;43.214;27.920;2022-11-20T01:52:39;97359.44;;;21.08;100.00
34243;BME280;20504;43.214;27.920;2022-11-20T02:02:15;97474.72;;;21.34;100.00
34243;BME280;20504;43.214;27.920;2022-11-20T02:13:41;97441.44;;;21.40;100.00
34243;BME280;20504;43.214;27.920;2022-11-20T02:16:53;97477.44;;;21.80;100.00
34243;BME280;20504;43.214;27.920;2022-11-20T02:27:07;97546.00;;;21.84;100.00
34243;BME280;20504;43.214;27.920;2022-11-20T02:30:18;97565.38;;;21.81;100.00
34243;BME280;20504;43.214;27.920;2022-11-20T02:32:48;97505.47;;;21.50;100.00
34243;BME280;20504;43.214;27.920;2022-11-20T02:35:45;97521.28;;;21.75;100.00
34243;BME280;20504;43.214;27.920;2022-11-20T02:38:22;97573.75;;;21.67;100.00
34243;BME280;20504;43.214;27.920;2022-11-20T02:45:10;97631.41;;;22.06;100.00
34243;BME280;20504;43.214;27.920;2022-11-20T02:59:46;97568.56;;;21.77;100.00
34243;BME280;20504;43.214;27.920;2022-11-20T03:02:33;97663.47;;;22.31;100.00
34243;BME280;20504;43.214;27.920;2022-11-20T03:08:08;97711.56;;;22.34;100.00
34243;BME280;20504;43.214;27.920;2022-11-20T03:11:13;97665.75;;;21.83;100.00
34243;BME280;20504;43.214;27.920;2022-11-20T03:17:12;97749.94;;;22.36;100.00
34243;BME280;20504;43.214;27.920;2022-11-20T03:20:27;97753.94;;;22.34;100.00
34243;BME280;20504;43.214;27.920;2022-11-20T03:23:19;97695.75;;;21.86;100.00
34243;BME280;20504;43.214;27.920;2022-11-20T03:26:41;97782.84;;;22.22;100.00
34243;BME280;20504;43.214;27.920;2022-11-20T03:29:48;97677.13;;;21.73;100.00
34243;BME280;20504;43.214;27.920;2022-11-20T03:32:26;97770.00;;;22.29;100.00
34243;BME280;20504;43.214;27.920;2022-11-20T03:36:18;97781.06;;;22.27;100.00
34243;BME280;20504;43.214;27.920;2022-11-20T03:39:33;97793.56;;;22.17;100.00
34243;BME280;20504;43.214;27.920;2022-11-20T03:42:27;97754.63;;;21.89;100.00
34243;BME280;20504;43.214;27.920;2022-11-20T03:45:41;97739.97;;;21.85;100.00
34243;BME280;20504;43.214;27.920;2022-11-20T03:51:45;97749.22;;;21.89;100.00
34243;BME280;20504;43.214;27.920;2022-11-20T03:54:38;97818.03;;;22.27;100.00
34243;BME280;20504;43.214;27.920;2022-11-20T03:57:08;97816.47;;;22.31;100.00
34243;BME280;20504;43.214;27.920;2022-11-20T03:59:36;97783.81;;;21.92;100.00
34243;BME280;20504;43.214;27.920;2022-11-20T04:02:07;97774.13;;;21.80;100.00
34243;BME280;20504;43.214;27.920;2022-11-20T04:04:58;97837.31;;;22.19;100.00
34243;BME280;20504;43.214;27.920;2022-11-20T04:07:30;97787.22;;;21.88;100.00
34243;BME280;20504;43.214;27.920;2022-11-20T04:09:59;97762.28;;;21.69;100.00
34243;BME280;20504;43.214;27.920;2022-11-20T04:12:34;97850.56;;;22.20;100.00
34243;BME280;20504;43.214;27.920;2022-11-20T04:15:33;97843.38;;;22.26;100.00
34243;BME280;20504;43.214;27.920;2022-11-20T04:18:03;97805.78;;;21.96;100.00
34243;BME280;20504;43.214;27.920;2022-11-20T04:20:35;97781.41;;;21.79;100.00
34243;BME280;20504;43.214;27.920;2022-11-20T04:23:58;97774.81;;;21.75;100.00
34243;BME280;20504;43.214;27.920;2022-11-20T04:26:39;97824.41;;;21.97;100.00
34243;BME280;20504;43.214;27.920;2022-11-20T04:29:36;97838.97;;;21.96;100.00
34243;BME280;20504;43.214;27.920;2022-11-20T04:32:38;97802.63;;;21.64;100.00
34243;BME280;20504;43.214;27.920;2022-11-20T04:35:19;97844.59;;;21.71;100.00
34243;BME280;20504;43.214;27.920;2022-11-20T04:37:51;97811.31;;;21.66;100.00
34243;BME280;20504;43.214;27.920;2022-11-20T04:44:00;97894.00;;;22.19;100.00
34243;BME280;20504;43.214;27.920;2022-11-20T04:47:20;97824.66;;;21.84;100.00
34243;BME280;20504;43.214;27.920;2022-11-20T04:56:23;97879.44;;;21.96;100.00
34243;BME280;20504;43.214;27.920;2022-11-20T04:59:05;97895.97;;;22.12;100.00
34243;BME280;20504;43.214;27.920;2022-11-20T05:02:01;97893.03;;;22.01;100.00
34243;BME280;20504;43.214;27.920;2022-11-20T05:04:43;97894.69;;;21.79;100.00
34243;BME280;20504;43.214;27.920;2022-11-20T05:07:10;97966.97;;;22.24;100.00
34243;BME280;20504;43.214;27.920;2022-11-20T05:10:00;97936.47;;;22.35;100.00
34243;BME280;20504;43.214;27.920;2022-11-20T05:13:13;97904.69;;;22.14;100.00
34243;BME280;20504;43.214;27.920;2022-11-20T05:30:36;97926.00;;;21.80;100.00
34243;BME280;20504;43.214;27.920;2022-11-20T05:36:52;97997.34;;;22.31;100.00
34243;BME280;20504;43.214;27.920;2022-11-20T05:43:00;98001.00;;;22.25;100.00
34243;BME280;20504;43.214;27.920;2022-11-20T05:46:40;98036.69;;;22.27;100.00
34243;BME280;20504;43.214;27.920;2022-11-20T05:59:56;98085.78;;;22.71;100.00
34243;BME280;20504;43.214;27.920;2022-11-20T06:02:46;98066.50;;;22.79;100.00
34243;BME280;20504;43.214;27.920;2022-11-20T06:05:37;98080.94;;;22.49;100.00
34243;BME280;20504;43.214;27.920;2022-11-20T06:26:54;98141.47;;;22.95;100.00
34243;BME280;20504;43.214;27.920;2022-11-20T06:46:46;98177.53;;;23.24;100.00
34243;BME280;20504;43.214;27.920;2022-11-20T06:49:46;98194.47;;;23.31;100.00
34243;BME280;20504;43.214;27.920;2022-11-20T06:59:03;98200.06;;;23.53;100.00
34243;BME280;20504;43.214;27.920;2022-11-20T07:01:36;98161.31;;;23.12;100.00
34243;BME280;20504;43.214;27.920;2022-11-20T07:07:10;98207.41;;;23.29;100.00
34243;BME280;20504;43.214;27.920;2022-11-20T07:12:56;98256.41;;;23.56;100.00
34243;BME280;20504;43.214;27.920;2022-11-20T07:34:25;98291.22;;;23.88;100.00
34243;BME280;20504;43.214;27.920;2022-11-20T07:50:13;98289.09;;;23.90;100.00
34243;BME280;20504;43.214;27.920;2022-11-20T08:33:13;98379.38;;;24.59;100.00
34243;BME280;20504;43.214;27.920;2022-11-20T09:25:22;98504.41;;;25.02;100.00
34243;BME280;20504;43.214;27.920;2022-11-20T09:31:27;98492.84;;;24.95;100.00
34243;BME280;20504;43.214;27.920;2022-11-20T09:34:28;98412.03;;;24.40;100.00
34243;BME280;20504;43.214;27.920;2022-11-20T09:37:46;98466.09;;;24.87;100.00
34243;BME280;20504;43.214;27.920;2022-11-20T09:40:37;98455.00;;;24.89;100.00
34243;BME280;20504;43.214;27.920;2022-11-20T09:54:49;98478.34;;;25.01;100.00
34243;BME280;20504;43.214;27.920;2022-11-20T09:57:56;98455.44;;;24.69;100.00
34243;BME280;20504;43.214;27.920;2022-11-20T10:06:37;98534.16;;;24.74;100.00
34243;BME280;20504;43.214;27.920;2022-11-20T10:09:29;98535.31;;;24.78;100.00
34243;BME280;20504;43.214;27.920;2022-11-20T10:22:32;98531.63;;;24.84;100.00
34243;BME280;20504;43.214;27.920;2022-11-20T10:31:13;98467.47;;;24.73;100.00
34243;BME280;20504;43.214;27.920;2022-11-20T10:33:48;98514.56;;;24.84;100.00
34243;BME280;20504;43.214;27.920;2022-11-20T10:36:45;98512.28;;;25.04;100.00
34243;BME280;20504;43.214;27.920;2022-11-20T10:53:14;98488.75;;;24.81;100.00
34243;BME280;20504;43.214;27.920;2022-11-20T10:55:50;98506.41;;;24.95;100.00
34243;BME280;20504;43.214;27.920;2022-11-20T10:59:04;98531.34;;;25.21;100.00
34243;BME280;20504;43.214;27.920;2022-11-20T11:02:00;98568.25;;;25.10;100.00
34243;BME280;20504;43.214;27.920;2022-11-20T11:09:53;98526.25;;;24.61;100.00
34243;BME280;20504;43.214;27.920;2022-11-20T11:12:22;98565.03;;;25.25;100.00
34243;BME280;20504;43.214;27.920;2022-11-20T11:15:30;98523.59;;;24.89;100.00
34243;BME280;20504;43.214;27.920;2022-11-20T11:25:56;98580.41;;;25.08;100.00
34243;BME280;20504;43.214;27.920;2022-11-20T11:28:32;98541.75;;;24.89;100.00
34243;BME280;20504;43.214;27.920;2022-11-20T11:30:59;98509.19;;;24.60;100.00
34243;BME280;20504;43.214;27.920;2022-11-20T11:34:11;98506.91;;;24.69;100.00
34243;BME280;20504;43.214;27.920;2022-11-20T11:39:57;98502.22;;;24.53;100.00
34243;BME280;20504;43.214;27.920;2022-11-20T11:42:56;98591.97;;;24.91;100.00
34243;BME280;20504;43.214;27.920;2022-11-20T11:58:51;98500.94;;;24.55;100.00
34243;BME280;20504;43.214;27.920;2022-11-20T12:01:47;98512.81;;;24.66;100.00
34243;BME280;20504;43.214;27.920;2022-11-20T12:04:50;98479.28;;;24.20;100.00
34243;BME280;20504;43.214;27.920;2022-11-20T12:11:06;98498.59;;;24.35;100.00
34243;BME280;20504;43.214;27.920;2022-11-20T12:17:42;98538.88;;;24.32;100.00
34243;BME280;20504;43.214;27.920;2022-11-20T12:20:27;98504.97;;;24.29;100.00
34243;BME280;20504;43.214;27.920;2022-11-20T12:23:20;98596.81;;;24.66;100.00
34243;BME280;20504;43.214;27.920;2022-11-20T12:25:55;98585.41;;;24.64;100.00
34243;BME280;20504;43.214;27.920;2022-11-20T12:34:21;98555.38;;;24.42;100.00
34243;BME280;20504;43.214;27.920;2022-11-20T12:39:41;98592.59;;;24.58;100.00
34243;BME280;20504;43.214;27.920;2022-11-20T12:48:57;98625.69;;;24.72;100.00
34243;BME280;20504;43.214;27.920;2022-11-20T12:51:38;98638.91;;;24.57;100.00
34243;BME280;20504;43.214;27.920;2022-11-20T12:57:50;98652.34;;;24.75;100.00
34243;BME280;20504;43.214;27.920;2022-11-20T13:00:35;98603.91;;;24.43;100.00
34243;BME280;20504;43.214;27.920;2022-11-20T13:08:55;98625.34;;;24.45;100.00
34243;BME280;20504;43.214;27.920;2022-11-20T13:16:48;98687.09;;;24.90;100.00
34243;BME280;20504;43.214;27.920;2022-11-20T13:19:29;98673.97;;;24.52;100.00
34243;BME280;20504;43.214;27.920;2022-11-20T13:23:02;98682.00;;;24.70;100.00
34243;BME280;20504;43.214;27.920;2022-11-20T13:32:13;98618.63;;;24.48;100.00
34243;BME280;20504;43.214;27.920;2022-11-20T13:34:57;98670.28;;;24.34;100.00
34243;BME280;20504;43.214;27.920;2022-11-20T13:37:36;98656.06;;;24.51;100.00
34243;BME280;20504;43.214;27.920;2022-11-20T13:43:14;98632.16;;;24.71;100.00
34243;BME280;20504;43.214;27.920;2022-11-20T13:46:11;98721.16;;;24.86;100.00
34243;BME280;20504;43.214;27.920;2022-11-20T13:48:51;98703.72;;;24.82;100.00
34243;BME280;20504;43.214;27.920;2022-11-20T13:57:51;98734.41;;;25.05;100.00
34243;BME280;20504;43.214;27.920;2022-11-20T14:00:23;98731.78;;;24.87;100.00
34243;BME280;20504;43.214;27.920;2022-11-20T14:05:39;98724.13;;;24.84;100.00
34243;BME280;20504;43.214;27.920;2022-11-20T14:08:14;98734.88;;;24.49;100.00
34243;BME280;20504;43.214;27.920;2022-11-20T14:10:44;98714.31;;;24.60;100.00
34243;BME280;20504;43.214;27.920;2022-11-20T14:13:18;98657.50;;;24.41;100.00
34243;BME280;20504;43.214;27.920;2022-11-20T14:15:45;98698.53;;;24.80;100.00
34243;BME280;20504;43.214;27.920;2022-11-20T14:18:19;98722.97;;;24.38;100.00
34243;BME280;20504;43.214;27.920;2022-11-20T14:20:46;98684.38;;;23.83;100.00
34243;BME280;20504;43.214;27.920;2022-11-20T14:23:22;98716.25;;;24.11;100.00
34243;BME280;20504;43.214;27.920;2022-11-20T14:25:50;98655.28;;;24.62;100.00
34243;BME280;20504;43.214;27.920;2022-11-20T14:28:38;98625.00;;;24.65;100.00
34243;BME280;20504;43.214;27.920;2022-11-20T14:31:28;98676.25;;;24.90;100.00
34243;BME280;20504;43.214;27.920;2022-11-20T14:33:55;98712.19;;;24.62;100.00
34243;BME280;20504;43.214;27.920;2022-11-20T14:36:23;98670.75;;;24.31;100.00
34243;BME280;20504;43.214;27.920;2022-11-20T14:38:51;98680.63;;;24.26;100.00
34243;BME280;20504;43.214;27.920;2022-11-20T14:41:25;98660.59;;;24.27;100.00
34243;BME280;20504;43.214;27.920;2022-11-20T14:43:57;98697.78;;;24.38;100.00
34243;BME280;20504;43.214;27.920;2022-11-20T14:46:25;98729.84;;;24.23;100.00
34243;BME280;20504;43.214;27.920;2022-11-20T14:49:00;98649.84;;;24.38;100.00
34243;BME280;20504;43.214;27.920;2022-11-20T14:51:39;98689.19;;;24.53;100.00
34243;BME280;20504;43.214;27.920;2022-11-20T14:54:16;98681.03;;;23.99;100.00
34243;BME280;20504;43.214;27.920;2022-11-20T14:57:00;98695.81;;;24.27;100.00
34243;BME280;20504;43.214;27.920;2022-11-20T14:59:31;98681.72;;;23.76;100.00
34243;BME280;20504;43.214;27.920;2022-11-20T15:02:11;98700.97;;;23.86;100.00
34243;BME280;20504;43.214;27.920;2022-11-20T15:04:51;98635.59;;;23.35;100.00
34243;BME280;20504;43.214;27.920;2022-11-20T15:07:34;98601.72;;;23.32;100.00
34243;BME280;20504;43.214;27.920;2022-11-20T15:10:09;98507.44;;;23.06;100.00
34243;BME280;20504;43.214;27.920;2022-11-20T15:12:59;98438.25;;;22.86;100.00
34243;BME280;20504;43.214;27.920;2022-11-20T15:15:38;98400.03;;;22.64;100.00
34243;BME280;20504;43.214;27.920;2022-11-20T15:18:16;98351.19;;;22.66;100.00
34243;BME280;20504;43.214;27.920;2022-11-20T15:20:47;98333.16;;;22.48;100.00
34243;BME280;20504;43.214;27.920;2022-11-20T15:23:16;98289.00;;;22.43;100.00
34243;BME280;20504;43.214;27.920;2022-11-20T15:26:00;98212.72;;;22.59;100.00
34243;BME280;20504;43.214;27.920;2022-11-20T15:28:31;98223.88;;;22.21;100.00
34243;BME280;20504;43.214;27.920;2022-11-20T15:31:03;98249.31;;;22.13;100.00
34243;BME280;20504;43.214;27.920;2022-11-20T15:33:35;98128.31;;;21.80;100.00
34243;BME280;20504;43.214;27.920;2022-11-20T15:36:03;98099.41;;;22.76;100.00
34243;BME280;20504;43.214;27.920;2022-11-20T15:38:34;98116.41;;;21.99;100.00
34243;BME280;20504;43.214;27.920;2022-11-20T15:41:20;98042.69;;;21.45;100.00
34243;BME280;20504;43.214;27.920;2022-11-20T15:44:10;98012.03;;;21.70;100.00
34243;BME280;20504;43.214;27.920;2022-11-20T15:46:56;97982.75;;;21.85;100.00
34243;BME280;20504;43.214;27.920;2022-11-20T15:49:30;97940.41;;;21.62;100.00
34243;BME280;20504;43.214;27.920;2022-11-20T15:52:10;97920.50;;;21.98;100.00
34243;BME280;20504;43.214;27.920;2022-11-20T15:54:36;97961.63;;;21.70;100.00
34243;BME280;20504;43.214;27.920;2022-11-20T15:59:40;97813.63;;;21.86;100.00
34243;BME280;20504;43.214;27.920;2022-11-20T16:02:15;97839.44;;;21.46;100.00
34243;BME280;20504;43.214;27.920;2022-11-20T16:08:31;97852.84;;;21.23;100.00
34243;BME280;20504;43.214;27.920;2022-11-20T16:11:31;97807.13;;;21.16;100.00
34243;BME280;20504;43.214;27.920;2022-11-20T16:14:11;97777.06;;;21.31;100.00
34243;BME280;20504;43.214;27.920;2022-11-20T16:17:04;97777.91;;;21.43;100.00
34243;BME280;20504;43.214;27.920;2022-11-20T16:19:30;97746.72;;;21.36;100.00
34243;BME280;20504;43.214;27.920;2022-11-20T16:21:57;97771.56;;;21.50;100.00
34243;BME280;20504;43.214;27.920;2022-11-20T16:24:23;97746.59;;;21.54;100.00
34243;BME280;20504;43.214;27.920;2022-11-20T16:26:48;97764.41;;;21.67;100.00
34243;BME280;20504;43.214;27.920;2022-11-20T16:29:16;97753.94;;;21.70;100.00
34243;BME280;20504;43.214;27.920;2022-11-20T17:11:44;98353.19;;;22.41;100.00
34243;BME280;20504;43.214;27.920;2022-11-20T17:41:09;98498.44;;;22.75;100.00
34243;BME280;20504;43.214;27.920;2022-11-20T17:52:55;98636.06;;;23.13;100.00
34243;BME280;20504;43.214;27.920;2022-11-20T17:55:59;98651.97;;;23.03;100.00
34243;BME280;20504;43.214;27.920;2022-11-20T18:32:06;98754.28;;;17.98;100.00
34243;BME280;20504;43.214;27.920;2022-11-20T18:34:33;98691.84;;;18.04;100.00
34243;BME280;20504;43.214;27.920;2022-11-20T18:37:00;98664.88;;;17.91;100.00
34243;BME280;20504;43.214;27.920;2022-11-20T18:39:25;98600.81;;;17.81;100.00
34243;BME280;20504;43.214;27.920;2022-11-20T18:41:51;98588.63;;;17.78;100.00
34243;BME280;20504;43.214;27.920;2022-11-20T18:44:35;98540.13;;;17.73;100.00
34243;BME280;20504;43.214;27.920;2022-11-20T18:47:25;98478.72;;;17.78;100.00
34243;BME280;20504;43.214;27.920;2022-11-20T18:49:53;98441.19;;;17.78;100.00
34243;BME280;20504;43.214;27.920;2022-11-20T18:52:29;98397.69;;;17.55;100.00
34243;BME280;20504;43.214;27.920;2022-11-20T18:54:57;98371.28;;;17.80;100.00
34243;BME280;20504;43.214;27.920;2022-11-20T18:57:24;98351.91;;;17.84;100.00
34243;BME280;20504;43.214;27.920;2022-11-20T18:59:55;98345.94;;;17.54;100.00
34243;BME280;20504;43.214;27.920;2022-11-20T19:02:24;98306.41;;;17.63;100.00
34243;BME280;20504;43.214;27.920;2022-11-20T19:04:50;98337.94;;;17.89;100.00
34243;BME280;20504;43.214;27.920;2022-11-20T19:07:16;98301.88;;;17.92;100.00
34243;BME280;20504;43.214;27.920;2022-11-20T19:09:44;98247.84;;;17.60;100.00
34243;BME280;20504;43.214;27.920;2022-11-20T19:12:12;98308.66;;;17.88;100.00
34243;BME280;20504;43.214;27.920;2022-11-20T19:14:39;98310.22;;;17.69;100.00
34243;BME280;20504;43.214;27.920;2022-11-20T19:17:06;98210.63;;;17.37;100.00
34243;BME280;20504;43.214;27.920;2022-11-20T19:19:34;98154.88;;;17.54;100.00
34243;BME280;20504;43.214;27.920;2022-11-20T19:22:00;98098.41;;;17.55;100.00
34243;BME280;20504;43.214;27.920;2022-11-20T19:24:25;98063.31;;;17.37;100.00
34243;BME280;20504;43.214;27.920;2022-11-20T19:26:54;98042.84;;;17.23;100.00
34243;BME280;20504;43.214;27.920;2022-11-20T19:29:21;97997.75;;;17.26;100.00
34243;BME280;20504;43.214;27.920;2022-11-20T19:31:47;98009.31;;;17.40;100.00
34243;BME280;20504;43.214;27.920;2022-11-20T19:34:13;97959.66;;;17.31;100.00
34243;BME280;20504;43.214;27.920;2022-11-20T19:36:40;97890.22;;;17.30;100.00
34243;BME280;20504;43.214;27.920;2022-11-20T19:39:08;97872.06;;;17.65;100.00
34243;BME280;20504;43.214;27.920;2022-11-20T19:41:38;97809.44;;;17.39;100.00
34243;BME280;20504;43.214;27.920;2022-11-20T19:44:09;97826.94;;;17.55;100.00
34243;BME280;20504;43.214;27.920;2022-11-20T19:46:56;97743.28;;;17.46;100.00
34243;BME280;20504;43.214;27.920;2022-11-20T19:49:24;97720.38;;;17.70;100.00
34243;BME280;20504;43.214;27.920;2022-11-20T19:57:21;97732.78;;;18.03;100.00
34243;BME280;20504;43.214;27.920;2022-11-20T19:59:50;97737.66;;;18.19;100.00
34243;BME280;20504;43.214;27.920;2022-11-20T20:02:16;97744.88;;;18.19;100.00
34243;BME280;20504;43.214;27.920;2022-11-20T20:04:42;97749.22;;;18.20;100.00
34243;BME280;20504;43.214;27.920;2022-11-20T20:07:07;97717.41;;;17.92;100.00
34243;BME280;20504;43.214;27.920;2022-11-20T20:09:34;97688.22;;;18.08;100.00
34243;BME280;20504;43.214;27.920;2022-11-20T20:12:03;97748.47;;;18.44;100.00
34243;BME280;20504;43.214;27.920;2022-11-20T20:14:28;97691.91;;;18.14;100.00
34243;BME280;20504;43.214;27.920;2022-11-20T20:16:55;97708.25;;;18.37;100.00
34243;BME280;20504;43.214;27.920;2022-11-20T20:19:21;97704.88;;;18.49;100.00
34243;BME280;20504;43.214;27.920;2022-11-20T20:21:46;97763.53;;;18.45;100.00
34243;BME280;20504;43.214;27.920;2022-11-20T20:24:13;97745.09;;;18.17;100.00
34243;BME280;20504;43.214;27.920;2022-11-20T20:26:40;97754.47;;;18.39;100.00
34243;BME280;20504;43.214;27.920;2022-11-20T20:29:06;97750.56;;;18.42;100.00
34243;BME280;20504;43.214;27.920;2022-11-20T20:31:34;97717.78;;;18.33;100.00
34243;BME280;20504;43.214;27.920;2022-11-20T20:34:01;97734.09;;;18.32;100.00
34243;BME280;20504;43.214;27.920;2022-11-20T20:36:29;97752.81;;;18.07;100.00
34243;BME280;20504;43.214;27.920;2022-11-20T20:38:57;97750.72;;;18.02;100.00
34243;BME280;20504;43.214;27.920;2022-11-20T20:41:29;97742.34;;;18.30;100.00
34243;BME280;20504;43.214;27.920;2022-11-20T20:43:55;97738.09;;;18.16;100.00
34243;BME280;20504;43.214;27.920;2022-11-20T20:46:39;97750.56;;;18.42;100.00
34243;BME280;20504;43.214;27.920;2022-11-20T20:49:05;97716.72;;;18.41;100.00
34243;BME280;20504;43.214;27.920;2022-11-20T20:51:31;97687.56;;;18.13;100.00
34243;BME280;20504;43.214;27.920;2022-11-20T20:53:58;97716.00;;;18.21;100.00
34243;BME280;20504;43.214;27.920;2022-11-20T20:56:23;97673.94;;;18.14;100.00
34243;BME280;20504;43.214;27.920;2022-11-20T20:58:51;97649.81;;;18.14;100.00
34243;BME280;20504;43.214;27.920;2022-11-20T21:01:17;97626.19;;;18.30;100.00
34243;BME280;20504;43.214;27.920;2022-11-20T21:03:44;97637.75;;;18.30;100.00
34243;BME280;20504;43.214;27.920;2022-11-20T21:06:10;97682.22;;;18.13;100.00
34243;BME280;20504;43.214;27.920;2022-11-20T21:08:37;97636.31;;;17.96;100.00
34243;BME280;20504;43.214;27.920;2022-11-20T21:11:08;97583.78;;;17.89;100.00
34243;BME280;20504;43.214;27.920;2022-11-20T21:13:35;97601.50;;;17.90;100.00
34243;BME280;20504;43.214;27.920;2022-11-20T21:16:02;97632.13;;;18.07;100.00
34243;BME280;20504;43.214;27.920;2022-11-20T21:18:30;97608.09;;;18.19;100.00
34243;BME280;20504;43.214;27.920;2022-11-20T21:20:57;97617.78;;;18.20;100.00
34243;BME280;20504;43.214;27.920;2022-11-20T21:23:44;97638.78;;;18.29;100.00
34243;BME280;20504;43.214;27.920;2022-11-20T21:26:12;97671.31;;;18.08;100.00
34243;BME280;20504;43.214;27.920;2022-11-20T21:28:48;97647.78;;;18.10;100.00
34243;BME280;20504;43.214;27.920;2022-11-20T21:31:23;97620.41;;;18.01;100.00
34243;BME280;20504;43.214;27.920;2022-11-20T21:33:55;97705.31;;;18.14;100.00
34243;BME280;20504;43.214;27.920;2022-11-20T21:36:35;97689.88;;;18.09;100.00
34243;BME280;20504;43.214;27.920;2022-11-20T21:41:33;97577.69;;;17.75;100.00
34243;BME280;20504;43.214;27.920;2022-11-20T21:44:00;97616.97;;;18.19;100.00
34243;BME280;20504;43.214;27.920;2022-11-20T21:46:33;97659.03;;;18.25;100.00
34243;BME280;20504;43.214;27.920;2022-11-20T21:48:59;97593.13;;;18.11;100.00
34243;BME280;20504;43.214;27.920;2022-11-20T21:51:26;97658.50;;;18.10;100.00
34243;BME280;20504;43.214;27.920;2022-11-20T21:53:58;97647.09;;;17.90;100.00
34243;BME280;20504;43.214;27.920;2022-11-20T21:56:24;97638.84;;;17.84;100.00
34243;BME280;20504;43.214;27.920;2022-11-20T21:58:52;97663.66;;;18.11;100.00
34243;BME280;20504;43.214;27.920;2022-11-20T22:01:24;97579.47;;;17.88;100.00
34243;BME280;20504;43.214;27.920;2022-11-20T22:03:55;97611.59;;;18.19;100.00
34243;BME280;20504;43.214;27.920;2022-11-20T22:06:23;97575.56;;;17.83;100.00
34243;BME280;20504;43.214;27.920;2022-11-20T22:08:52;97608.53;;;18.22;100.00
34243;BME280;20504;43.214;27.920;2022-11-20T22:11:20;97609.03;;;18.06;100.00
34243;BME280;20504;43.214;27.920;2022-11-20T22:13:47;97600.59;;;18.02;100.00
34243;BME280;20504;43.214;27.920;2022-11-20T22:16:33;97544.84;;;18.11;100.00
34243;BME280;20504;43.214;27.920;2022-11-20T22:19:00;97570.78;;;17.92;100.00
34243;BME280;20504;43.214;27.920;2022-11-20T22:21:29;97598.25;;;17.81;100.00
34243;BME280;20504;43.214;27.920;2022-11-20T22:23:57;97604.88;;;18.10;100.00
34243;BME280;20504;43.214;27.920;2022-11-20T22:26:28;97611.94;;;18.04;100.00
34243;BME280;20504;43.214;27.920;2022-11-20T22:28:56;97565.13;;;18.00;100.00
34243;BME280;20504;43.214;27.920;2022-11-20T22:31:26;97508.19;;;18.05;100.00
34243;BME280;20504;43.214;27.920;2022-11-20T22:33:52;97539.19;;;18.19;100.00
34243;BME280;20504;43.214;27.920;2022-11-20T22:36:21;97495.72;;;17.92;100.00
34243;BME280;20504;43.214;27.920;2022-11-20T22:38:53;97553.38;;;18.26;100.00
34243;BME280;20504;43.214;27.920;2022-11-20T22:41:20;97552.50;;;18.32;100.00
34243;BME280;20504;43.214;27.920;2022-11-20T22:43:47;97552.91;;;17.79;100.00